createdAt,value
2023-02-08T00:03:49.835Z,50.40
2023-02-08T00:08:51.502Z,35.97
2023-02-08T00:13:53.217Z,30.70
2023-02-08T00:18:54.887Z,32.90
2023-02-08T00:23:57.338Z,32.80
2023-02-08T00:28:59.011Z,41.50
2023-02-08T00:34:00.694Z,36.40
2023-02-08T00:39:02.360Z,31.30
2023-02-08T00:44:04.127Z,33.83
2023-02-08T00:49:05.777Z,33.70
2023-02-08T00:54:07.437Z,33.73
2023-02-08T00:59:09.142Z,31.30
2023-02-08T01:04:10.852Z,32.00
2023-02-08T01:09:12.503Z,29.77
2023-02-08T01:14:14.169Z,29.07
2023-02-08T01:19:16.437Z,32.10
2023-02-08T01:24:18.179Z,30.13
2023-02-08T01:29:19.810Z,30.27
2023-02-08T01:34:21.457Z,27.97
2023-02-08T01:39:23.129Z,29.37
2023-02-08T01:45:02.224Z,28.50
2023-02-08T01:50:04.276Z,26.83
2023-02-08T01:55:20.413Z,27.87
2023-02-08T02:00:23.174Z,30.37
2023-02-08T02:05:39.907Z,30.10
2023-02-08T02:10:42.773Z,31.30
2023-02-08T02:15:45.621Z,29.57
2023-02-08T02:21:05.812Z,30.27
2023-02-08T02:26:23.171Z,28.57
2023-02-08T02:31:43.084Z,30.20
2023-02-08T02:36:53.138Z,29.67
2023-02-08T02:42:42.027Z,27.43
2023-02-08T02:47:52.885Z,29.40
2023-02-08T02:53:07.380Z,27.00
2023-02-08T02:58:12.024Z,30.27
2023-02-08T03:03:23.267Z,27.83
2023-02-08T03:08:32.544Z,29.00
2023-02-08T03:13:55.079Z,26.03
2023-02-08T03:19:11.766Z,28.37
2023-02-08T03:24:33.079Z,27.67
2023-02-08T03:30:04.065Z,27.33
2023-02-08T03:35:25.231Z,27.30
2023-02-08T03:40:41.836Z,29.80
2023-02-08T03:45:49.726Z,27.47
2023-02-08T03:50:53.919Z,28.80
2023-02-08T03:56:01.707Z,30.30
2023-02-08T04:01:08.715Z,27.17
2023-02-08T04:06:10.537Z,30.93
2023-02-08T04:11:12.255Z,27.60
2023-02-08T04:16:14.121Z,28.00
2023-02-08T04:21:15.768Z,25.87
2023-02-08T04:26:17.398Z,29.70
2023-02-08T04:31:19.250Z,31.43
2023-02-08T04:36:21.084Z,28.50
2023-02-08T04:41:22.736Z,28.83
2023-02-08T04:46:24.565Z,27.67
2023-02-08T04:51:26.320Z,32.40
2023-02-08T04:56:31.494Z,28.27
2023-02-08T05:01:33.723Z,26.57
2023-02-08T05:06:35.463Z,29.90
2023-02-08T05:11:37.532Z,28.37
2023-02-08T05:16:39.219Z,36.30
2023-02-08T05:21:40.897Z,67.13
2023-02-08T05:26:42.676Z,67.60
2023-02-08T05:31:44.456Z,66.23
2023-02-08T05:36:46.219Z,103.27
2023-02-08T05:41:47.882Z,85.07
2023-02-08T05:46:49.632Z,96.07
2023-02-08T05:51:51.401Z,44.27
2023-02-08T05:56:53.129Z,34.10
2023-02-08T06:01:54.886Z,48.13
2023-02-08T06:06:56.564Z,86.87
2023-02-08T06:11:58.270Z,49.23
2023-02-08T06:17:00.231Z,45.50
2023-02-08T06:22:02.037Z,73.30
2023-02-08T06:27:03.823Z,48.97
2023-02-08T06:32:05.676Z,43.97
2023-02-08T06:37:07.442Z,40.00
2023-02-08T06:42:09.298Z,37.70
2023-02-08T06:47:10.950Z,107.43
2023-02-08T06:52:12.723Z,44.73
2023-02-08T06:57:14.481Z,45.33
2023-02-08T07:02:19.072Z,41.93
2023-02-08T07:07:20.837Z,46.93
2023-02-08T07:12:22.564Z,49.77
2023-02-08T07:17:24.265Z,45.43
2023-02-08T07:22:25.977Z,75.50
2023-02-08T07:27:27.986Z,80.40
2023-02-08T07:32:29.794Z,84.13
2023-02-08T07:37:33.026Z,68.27
2023-02-08T07:42:34.725Z,65.40
2023-02-08T07:47:36.420Z,53.53
2023-02-08T07:52:38.174Z,55.00
2023-02-08T07:57:39.871Z,50.30
2023-02-08T08:02:41.974Z,43.47
2023-02-08T08:07:43.749Z,60.77
2023-02-08T08:12:45.560Z,52.00
2023-02-08T08:17:47.222Z,76.20
2023-02-08T08:22:49.222Z,45.27
2023-02-08T08:27:51.002Z,40.43
2023-02-08T08:32:52.802Z,49.83
2023-02-08T08:37:54.476Z,43.63
2023-02-08T08:42:57.304Z,38.10
2023-02-08T08:48:00.600Z,36.30
2023-02-08T08:53:02.475Z,36.37
2023-02-08T08:58:04.190Z,32.90
2023-02-08T09:03:05.935Z,27.50
2023-02-08T09:08:07.814Z,25.40
2023-02-08T09:13:09.655Z,25.67
2023-02-08T09:18:11.482Z,22.87
2023-02-08T09:23:14.597Z,22.37
2023-02-08T09:28:16.385Z,28.17
2023-02-08T09:33:18.086Z,25.83
2023-02-08T09:38:19.905Z,22.80
2023-02-08T09:43:31.594Z,23.60
2023-02-08T09:48:41.055Z,23.00
2023-02-08T09:53:50.381Z,22.53
2023-02-08T09:58:53.602Z,23.53
2023-02-08T10:04:28.003Z,21.83
2023-02-08T10:09:29.772Z,20.17
2023-02-08T10:14:40.249Z,19.90
2023-02-08T10:20:07.453Z,19.87
2023-02-08T10:25:35.310Z,18.80
2023-02-08T10:30:52.455Z,16.73
2023-02-08T10:35:54.844Z,17.03
2023-02-08T10:41:02.077Z,16.20
2023-02-08T10:46:32.329Z,15.17
2023-02-08T10:51:34.609Z,15.53
2023-02-08T10:57:06.461Z,15.13
2023-02-08T11:02:29.663Z,18.43
2023-02-08T11:07:34.717Z,14.80
2023-02-08T11:12:38.000Z,16.30
2023-02-08T11:17:39.819Z,15.77
2023-02-08T11:22:45.979Z,15.50
2023-02-08T11:27:50.570Z,20.77
2023-02-08T11:33:23.237Z,16.70
2023-02-08T11:38:28.348Z,18.80
2023-02-08T11:43:35.379Z,17.30
2023-02-08T11:48:48.897Z,19.97
2023-02-08T11:53:50.626Z,18.13
2023-02-08T11:59:12.427Z,18.70
2023-02-08T12:04:15.978Z,23.23
2023-02-08T12:09:52.753Z,20.80
2023-02-08T12:15:24.296Z,19.23
2023-02-08T12:20:45.522Z,18.77
2023-02-08T12:26:02.739Z,20.03
2023-02-08T12:31:18.255Z,19.97
2023-02-08T12:37:18.057Z,17.67
2023-02-08T12:42:19.749Z,16.67
2023-02-08T12:47:39.482Z,18.30
2023-02-08T12:52:55.128Z,17.73
2023-02-08T12:58:00.310Z,16.23
2023-02-08T13:03:23.848Z,16.45
2023-02-08T13:08:50.682Z,15.18
2023-02-08T13:14:07.458Z,15.38
2023-02-08T13:19:36.849Z,16.50
2023-02-08T13:24:42.237Z,16.10
2023-02-08T13:29:50.732Z,16.52
2023-02-08T13:34:56.802Z,17.10
2023-02-08T13:40:28.287Z,15.52
2023-02-08T13:45:31.762Z,16.10
2023-02-08T13:50:52.805Z,16.03
2023-02-08T13:56:01.153Z,16.80
2023-02-08T14:01:28.658Z,17.43
2023-02-08T14:06:31.745Z,16.87
2023-02-08T14:11:46.115Z,18.37
2023-02-08T14:17:09.495Z,17.50
2023-02-08T14:22:11.157Z,18.77
2023-02-08T14:27:34.130Z,19.13
2023-02-08T14:32:42.567Z,21.17
2023-02-08T14:37:45.264Z,24.23
2023-02-08T14:42:53.174Z,23.00
2023-02-08T14:48:09.781Z,22.57
2023-02-08T14:53:25.569Z,21.10
2023-02-08T14:58:34.520Z,20.23
2023-02-08T15:03:36.508Z,21.63
2023-02-08T15:08:38.388Z,20.40
2023-02-08T15:13:40.104Z,23.33
2023-02-08T15:18:47.469Z,23.20
2023-02-08T15:23:59.232Z,21.10
2023-02-08T15:29:01.114Z,21.30
2023-02-08T15:34:03.071Z,22.47
2023-02-08T15:39:19.693Z,23.53
2023-02-08T15:44:30.622Z,26.57
2023-02-08T15:49:34.321Z,27.83
2023-02-08T15:54:36.294Z,27.23
2023-02-08T15:59:39.906Z,28.20
2023-02-08T16:04:46.199Z,32.50
2023-02-08T16:09:48.056Z,29.07
2023-02-08T16:14:52.856Z,30.63
2023-02-08T16:19:54.734Z,29.50
2023-02-08T16:25:22.586Z,28.07
2023-02-08T16:30:24.680Z,32.40
2023-02-08T16:35:30.017Z,34.87
2023-02-08T16:40:48.901Z,36.17
2023-02-08T16:46:12.293Z,33.87
2023-02-08T16:51:21.875Z,39.93
2023-02-08T16:56:24.118Z,34.87
2023-02-08T17:01:26.503Z,36.07
2023-02-08T17:06:31.709Z,38.53
2023-02-08T17:11:33.656Z,36.10
2023-02-08T17:16:36.990Z,38.27
2023-02-08T17:21:38.754Z,38.57
2023-02-08T17:26:43.316Z,37.40
2023-02-08T17:31:45.759Z,35.33
2023-02-08T17:36:48.760Z,35.40
2023-02-08T17:41:50.434Z,36.60
2023-02-08T17:46:52.137Z,38.50
2023-02-08T17:51:53.836Z,36.50
2023-02-08T17:56:58.532Z,36.40
2023-02-08T18:02:00.290Z,34.70
2023-02-08T18:07:02.082Z,34.90
2023-02-08T18:12:03.886Z,33.63
2023-02-08T18:17:06.992Z,33.60
2023-02-08T18:22:08.933Z,33.87
2023-02-08T18:27:10.616Z,34.23
2023-02-08T18:32:12.530Z,31.10
2023-02-08T18:37:14.828Z,31.87
2023-02-08T18:42:16.515Z,35.33
2023-02-08T18:47:18.228Z,36.37
2023-02-08T18:52:19.959Z,35.33
2023-02-08T18:57:21.693Z,36.27
2023-02-08T19:02:23.663Z,33.40
2023-02-08T19:07:25.775Z,31.47
2023-02-08T19:12:27.962Z,33.33
2023-02-08T19:17:29.673Z,30.80
2023-02-08T19:22:31.563Z,31.97
2023-02-08T19:27:33.246Z,34.13
2023-02-08T19:32:35.042Z,30.50
2023-02-08T19:37:37.154Z,36.83
2023-02-08T19:42:38.924Z,40.50
2023-02-08T19:47:51.219Z,43.93
2023-02-08T19:52:53.441Z,36.30
2023-02-08T19:57:55.157Z,33.17
2023-02-08T20:02:56.934Z,32.27
2023-02-08T20:08:00.709Z,28.40
2023-02-08T20:13:02.411Z,31.70
2023-02-08T20:18:04.753Z,32.80
2023-02-08T20:23:21.777Z,33.53
2023-02-08T20:28:23.957Z,34.93
2023-02-08T20:33:25.693Z,35.13
2023-02-08T20:38:27.342Z,39.30
2023-02-08T20:43:29.035Z,36.93
2023-02-08T20:48:30.710Z,34.10
2023-02-08T20:53:33.464Z,34.90
2023-02-08T20:58:35.656Z,35.30
2023-02-08T21:03:37.811Z,29.20
2023-02-08T21:08:39.935Z,29.50
2023-02-08T21:13:41.592Z,32.70
2023-02-08T21:18:43.808Z,32.87
2023-02-08T21:23:46.623Z,33.87
2023-02-08T21:28:52.011Z,35.10
2023-02-08T21:33:53.858Z,34.07
2023-02-08T21:38:57.346Z,36.93
2023-02-08T21:44:00.770Z,32.97
2023-02-08T21:49:21.022Z,32.53
2023-02-08T21:54:41.427Z,30.80
2023-02-08T21:59:43.548Z,37.00
2023-02-08T22:05:04.093Z,34.23
2023-02-08T22:10:10.184Z,32.63
2023-02-08T22:15:14.385Z,31.33
2023-02-08T22:20:16.342Z,27.63
2023-02-08T22:25:19.181Z,32.10
2023-02-08T22:30:21.850Z,33.27
2023-02-08T22:35:24.526Z,31.80
2023-02-08T22:40:26.253Z,33.27
2023-02-08T22:45:28.046Z,33.87
2023-02-08T22:50:29.753Z,35.60
2023-02-08T22:55:31.453Z,37.50
2023-02-08T23:00:33.123Z,31.57
2023-02-08T23:05:34.885Z,31.93
2023-02-08T23:10:36.889Z,30.67
2023-02-08T23:15:41.923Z,41.60
2023-02-08T23:20:43.990Z,37.50
2023-02-08T23:25:45.910Z,40.53
2023-02-08T23:30:47.864Z,40.43
2023-02-08T23:35:49.710Z,30.17
2023-02-08T23:40:51.524Z,30.13
2023-02-08T23:45:53.162Z,31.23
2023-02-08T23:50:59.871Z,29.63
2023-02-08T23:56:17.269Z,35.30
